createdAt,value
2023-03-25T00:03:55.183Z,2282.79437
2023-03-25T00:18:56.911Z,2198.52388
2023-03-25T00:33:58.666Z,2178.86229
2023-03-25T00:49:00.424Z,2231.47428
2023-03-25T01:04:02.227Z,2314.33557
2023-03-25T01:19:04.113Z,2320.34683
2023-03-25T01:34:05.826Z,2361.23399
2023-03-25T01:49:07.694Z,2388.59231
2023-03-25T02:04:09.456Z,2440.80197
2023-03-25T02:19:11.244Z,2438.58104
2023-03-25T02:34:12.966Z,2549.95294
2023-03-25T02:49:14.707Z,2594.3858
2023-03-25T03:04:16.410Z,2723.57776
2023-03-25T03:19:18.457Z,2771.45864
2023-03-25T03:34:20.267Z,2664.01642
2023-03-25T03:49:21.962Z,2740.28682
2023-03-25T04:04:23.708Z,2785.86331
2023-03-25T04:19:25.531Z,2851.06436
2023-03-25T04:34:27.324Z,2878.62566
2023-03-25T04:49:29.016Z,2794.57821
2023-03-25T05:04:30.778Z,2925.76472
2023-03-25T05:19:32.513Z,2919.39051
2023-03-25T05:34:34.288Z,2961.3265
2023-03-25T05:49:35.981Z,2827.00475
2023-03-25T06:04:37.743Z,2848.03453
2023-03-25T06:19:39.448Z,2909.88109
2023-03-25T06:34:41.210Z,2945.05548
2023-03-25T06:49:42.922Z,2827.00475
2023-03-25T07:04:44.706Z,2919.39051
2023-03-25T07:19:46.453Z,2961.3265
2023-03-25T07:34:48.193Z,2916.21381
2023-03-25T07:49:50.213Z,2932.16683
2023-03-25T08:04:51.917Z,2977.77831
2023-03-25T08:19:53.701Z,3021.421
2023-03-25T08:34:55.452Z,2991.07196
2023-03-25T08:49:57.215Z,3028.24907
2023-03-25T09:04:58.989Z,3151.08808
2023-03-25T09:20:00.767Z,3064.60883
2023-03-25T09:35:02.540Z,3068.11726
2023-03-25T09:50:04.260Z,3094.68871
2023-03-25T10:05:06.060Z,2729.12476
2023-03-25T10:20:07.799Z,2571.97748
2023-03-25T10:35:09.495Z,2427.53674
2023-03-25T10:50:11.212Z,2088.85475
2023-03-25T11:05:12.937Z,2024.16968
2023-03-25T11:20:14.693Z,1939.21902
2023-03-25T11:35:16.443Z,1767.81052
2023-03-25T11:50:18.313Z,1763.15839
2023-03-25T12:05:20.094Z,1805.93042
2023-03-25T12:20:21.848Z,1724.58222
2023-03-25T12:35:23.630Z,1747.06699
2023-03-25T12:50:25.383Z,1982.24902
2023-03-25T13:05:27.138Z,1848.27636
2023-03-25T13:20:28.831Z,1849.55191
2023-03-25T13:35:30.588Z,1879.38339
2023-03-25T13:50:32.315Z,1893.99343
2023-03-25T14:05:34.124Z,1926.67196
2023-03-25T14:20:35.996Z,1972.03876
2023-03-25T14:35:37.711Z,2031.84281
2023-03-25T14:50:39.520Z,2130.36616
2023-03-25T15:05:41.370Z,2125.29789
2023-03-25T15:20:43.212Z,1539.3457
2023-03-25T15:35:44.972Z,1553.62368
2023-03-25T15:50:46.709Z,1664.59677
2023-03-25T16:05:48.444Z,1808.36757
2023-03-25T16:20:50.544Z,1967.69507
2023-03-25T16:35:52.625Z,2074.30391
2023-03-25T16:50:54.360Z,2097.02711
2023-03-25T17:05:56.129Z,2137.16159
2023-03-25T17:20:58.023Z,2213.04757
2023-03-25T17:35:59.782Z,2168.28529
2023-03-25T17:51:01.494Z,2218.54355
2023-03-25T18:06:03.237Z,2252.10135
2023-03-25T18:21:04.961Z,2280.85157
2023-03-25T18:36:06.677Z,2306.36884
2023-03-25T18:51:08.400Z,2318.33961
2023-03-25T19:06:10.134Z,2322.35753
2023-03-25T19:21:11.850Z,2344.70742
2023-03-25T19:36:13.604Z,2357.08054
2023-03-25T19:51:15.353Z,2342.65785
2023-03-25T20:06:17.051Z,2377.99519
2023-03-25T20:21:18.775Z,2407.90707
2023-03-25T20:36:20.494Z,2405.74557
2023-03-25T20:51:22.267Z,2416.59204
2023-03-25T21:06:26.608Z,2425.33988
2023-03-25T21:21:30.308Z,2403.58795
2023-03-25T21:36:32.009Z,2367.49168
2023-03-25T21:51:33.738Z,2365.4021
2023-03-25T22:06:35.460Z,2346.76058
2023-03-25T22:21:37.554Z,2332.46352
2023-03-25T22:36:39.439Z,2334.49528
2023-03-25T22:51:41.147Z,2320.34683
2023-03-25T23:06:45.288Z,2298.45677
2023-03-25T23:21:50.849Z,2269.26384
2023-03-25T23:36:52.577Z,2161.29083
2023-03-25T23:51:54.277Z,1966.25142
